sensor_id;sensor_type;location;lat;lon;timestamp;temperature;humidity
3037;DHT22;1528;52.550;13.408;2022-09-03T00:02:32;16.10;15.60
3037;DHT22;1528;52.550;13.408;2022-09-03T00:05:23;16.10;15.50
3037;DHT22;1528;52.550;13.408;2022-09-03T00:08:16;16.00;15.60
3037;DHT22;1528;52.550;13.408;2022-09-03T00:11:11;15.90;15.40
3037;DHT22;1528;52.550;13.408;2022-09-03T00:14:04;16.00;15.30
3037;DHT22;1528;52.550;13.408;2022-09-03T00:16:56;16.00;15.50
3037;DHT22;1528;52.550;13.408;2022-09-03T00:19:55;16.00;15.70
3037;DHT22;1528;52.550;13.408;2022-09-03T00:22:46;15.90;15.80
3037;DHT22;1528;52.550;13.408;2022-09-03T00:25:39;16.00;15.90
3037;DHT22;1528;52.550;13.408;2022-09-03T00:28:34;15.90;15.80
3037;DHT22;1528;52.550;13.408;2022-09-03T00:31:28;15.80;15.90
3037;DHT22;1528;52.550;13.408;2022-09-03T00:34:24;15.90;16.00
3037;DHT22;1528;52.550;13.408;2022-09-03T00:37:11;15.90;15.90
3037;DHT22;1528;52.550;13.408;2022-09-03T00:39:57;15.80;16.00
3037;DHT22;1528;52.550;13.408;2022-09-03T00:42:48;15.70;16.10
3037;DHT22;1528;52.550;13.408;2022-09-03T00:45:53;15.80;16.20
3037;DHT22;1528;52.550;13.408;2022-09-03T00:48:55;15.80;16.10
3037;DHT22;1528;52.550;13.408;2022-09-03T00:52:01;15.70;16.10
3037;DHT22;1528;52.550;13.408;2022-09-03T00:54:57;15.70;16.60
3037;DHT22;1528;52.550;13.408;2022-09-03T00:58:02;15.70;16.20
3037;DHT22;1528;52.550;13.408;2022-09-03T01:00:57;15.80;16.40
3037;DHT22;1528;52.550;13.408;2022-09-03T01:03:51;15.70;15.90
3037;DHT22;1528;52.550;13.408;2022-09-03T01:06:46;15.70;16.10
3037;DHT22;1528;52.550;13.408;2022-09-03T01:09:44;15.60;16.40
3037;DHT22;1528;52.550;13.408;2022-09-03T01:12:37;15.60;16.50
3037;DHT22;1528;52.550;13.408;2022-09-03T01:15:31;15.50;16.60
3037;DHT22;1528;52.550;13.408;2022-09-03T05:29:02;14.70;21.40
3037;DHT22;1528;52.550;13.408;2022-09-03T05:31:49;14.70;21.80
3037;DHT22;1528;52.550;13.408;2022-09-03T05:34:38;14.70;22.10
3037;DHT22;1528;52.550;13.408;2022-09-03T05:37:27;14.60;22.30
3037;DHT22;1528;52.550;13.408;2022-09-03T05:40:18;14.60;22.40
3037;DHT22;1528;52.550;13.408;2022-09-03T05:43:10;14.40;22.30
3037;DHT22;1528;52.550;13.408;2022-09-03T05:46:14;14.70;22.40
3037;DHT22;1528;52.550;13.408;2022-09-03T05:49:09;15.00;22.30
3037;DHT22;1528;52.550;13.408;2022-09-03T05:51:59;15.00;22.10
3037;DHT22;1528;52.550;13.408;2022-09-03T05:55:22;15.10;21.90
3037;DHT22;1528;52.550;13.408;2022-09-03T05:58:08;15.00;22.00
3037;DHT22;1528;52.550;13.408;2022-09-03T06:00:55;15.00;22.10
3037;DHT22;1528;52.550;13.408;2022-09-03T06:03:47;15.00;22.20
3037;DHT22;1528;52.550;13.408;2022-09-03T06:07:12;14.90;22.10
3037;DHT22;1528;52.550;13.408;2022-09-03T06:10:13;14.90;22.40
3037;DHT22;1528;52.550;13.408;2022-09-03T06:13:03;14.90;22.30
3037;DHT22;1528;52.550;13.408;2022-09-03T06:16:11;14.90;22.70
3037;DHT22;1528;52.550;13.408;2022-09-03T06:34:33;15.70;21.70
3037;DHT22;1528;52.550;13.408;2022-09-03T06:37:26;15.70;21.70
3037;DHT22;1528;52.550;13.408;2022-09-03T07:30:49;17.10;19.10
3037;DHT22;1528;52.550;13.408;2022-09-03T07:33:37;17.20;19.20
3037;DHT22;1528;52.550;13.408;2022-09-03T08:48:56;19.80;14.50
3037;DHT22;1528;52.550;13.408;2022-09-03T08:51:49;19.80;14.40
3037;DHT22;1528;52.550;13.408;2022-09-03T08:54:47;19.70;14.30
3037;DHT22;1528;52.550;13.408;2022-09-03T08:57:48;19.70;14.30
3037;DHT22;1528;52.550;13.408;2022-09-03T09:01:13;19.40;14.10
3037;DHT22;1528;52.550;13.408;2022-09-03T09:11:22;19.50;14.40
3037;DHT22;1528;52.550;13.408;2022-09-03T09:14:18;19.50;14.20
3037;DHT22;1528;52.550;13.408;2022-09-03T09:21:06;20.00;14.10
3037;DHT22;1528;52.550;13.408;2022-09-03T09:28:55;20.10;13.60
3037;DHT22;1528;52.550;13.408;2022-09-03T09:31:47;20.20;13.30
3037;DHT22;1528;52.550;13.408;2022-09-03T09:34:57;20.30;13.40
3037;DHT22;1528;52.550;13.408;2022-09-03T09:37:49;20.50;12.80
3037;DHT22;1528;52.550;13.408;2022-09-03T09:40:37;20.60;12.40
3037;DHT22;1528;52.550;13.408;2022-09-03T09:43:41;20.50;11.50
3037;DHT22;1528;52.550;13.408;2022-09-03T10:07:33;21.70;9.20
3037;DHT22;1528;52.550;13.408;2022-09-03T10:10:22;21.80;8.20
3037;DHT22;1528;52.550;13.408;2022-09-03T10:13:16;22.00;8.40
3037;DHT22;1528;52.550;13.408;2022-09-03T10:16:09;21.90;8.40
3037;DHT22;1528;52.550;13.408;2022-09-03T10:21:44;22.00;7.60
3037;DHT22;1528;52.550;13.408;2022-09-03T10:24:51;22.10;7.80
3037;DHT22;1528;52.550;13.408;2022-09-03T10:27:42;22.20;7.30
3037;DHT22;1528;52.550;13.408;2022-09-03T10:30:38;22.30;6.90
3037;DHT22;1528;52.550;13.408;2022-09-03T10:33:33;22.30;6.80
3037;DHT22;1528;52.550;13.408;2022-09-03T10:36:24;22.40;6.80
3037;DHT22;1528;52.550;13.408;2022-09-03T10:39:21;22.50;5.80
3037;DHT22;1528;52.550;13.408;2022-09-03T10:42:18;22.60;5.50
3037;DHT22;1528;52.550;13.408;2022-09-03T10:45:17;22.70;4.70
3037;DHT22;1528;52.550;13.408;2022-09-03T11:16:39;24.80;2.90
3037;DHT22;1528;52.550;13.408;2022-09-03T11:22:04;25.00;3.10
3037;DHT22;1528;52.550;13.408;2022-09-03T11:30:06;27.30;1.00
3037;DHT22;1528;52.550;13.408;2022-09-03T11:32:58;27.30;1.00
3037;DHT22;1528;52.550;13.408;2022-09-03T11:35:55;27.00;1.00
3037;DHT22;1528;52.550;13.408;2022-09-03T11:38:44;26.80;1.00
3037;DHT22;1528;52.550;13.408;2022-09-03T11:41:41;26.80;1.00
3037;DHT22;1528;52.550;13.408;2022-09-03T11:44:49;27.70;1.00
3037;DHT22;1528;52.550;13.408;2022-09-03T11:47:42;27.90;1.00
3037;DHT22;1528;52.550;13.408;2022-09-03T11:50:31;27.20;1.00
3037;DHT22;1528;52.550;13.408;2022-09-03T11:53:23;26.70;1.00
3037;DHT22;1528;52.550;13.408;2022-09-03T11:56:17;26.30;1.00
3037;DHT22;1528;52.550;13.408;2022-09-03T11:59:17;26.30;1.00
3037;DHT22;1528;52.550;13.408;2022-09-03T12:02:24;26.30;1.00
3037;DHT22;1528;52.550;13.408;2022-09-03T12:05:21;27.40;1.00
3037;DHT22;1528;52.550;13.408;2022-09-03T12:08:28;28.50;1.00
3037;DHT22;1528;52.550;13.408;2022-09-03T12:11:29;28.20;1.00
3037;DHT22;1528;52.550;13.408;2022-09-03T12:14:26;27.40;1.00
3037;DHT22;1528;52.550;13.408;2022-09-03T12:30:17;25.70;1.00
3037;DHT22;1528;52.550;13.408;2022-09-03T12:33:05;27.80;1.00
3037;DHT22;1528;52.550;13.408;2022-09-03T12:35:58;32.10;1.00
3037;DHT22;1528;52.550;13.408;2022-09-03T12:38:44;33.50;1.00
3037;DHT22;1528;52.550;13.408;2022-09-03T13:03:20;28.50;1.00
3037;DHT22;1528;52.550;13.408;2022-09-03T13:06:11;28.30;1.00
3037;DHT22;1528;52.550;13.408;2022-09-03T13:09:09;28.10;1.00
3037;DHT22;1528;52.550;13.408;2022-09-03T13:12:02;27.80;1.00
3037;DHT22;1528;52.550;13.408;2022-09-03T13:15:20;27.60;1.00
3037;DHT22;1528;52.550;13.408;2022-09-03T13:18:24;27.30;1.00
3037;DHT22;1528;52.550;13.408;2022-09-03T13:21:20;27.00;1.00
3037;DHT22;1528;52.550;13.408;2022-09-03T13:24:24;26.80;1.00
3037;DHT22;1528;52.550;13.408;2022-09-03T13:27:20;26.90;1.00
3037;DHT22;1528;52.550;13.408;2022-09-03T13:30:09;26.70;1.00
3037;DHT22;1528;52.550;13.408;2022-09-03T13:33:00;26.60;1.00
3037;DHT22;1528;52.550;13.408;2022-09-03T13:35:58;26.70;1.00
3037;DHT22;1528;52.550;13.408;2022-09-03T13:38:53;26.70;1.00
3037;DHT22;1528;52.550;13.408;2022-09-03T13:41:50;26.70;1.00
3037;DHT22;1528;52.550;13.408;2022-09-03T13:44:43;26.90;1.00
3037;DHT22;1528;52.550;13.408;2022-09-03T13:47:38;26.70;1.00
3037;DHT22;1528;52.550;13.408;2022-09-03T13:51:00;26.30;1.00
3037;DHT22;1528;52.550;13.408;2022-09-03T13:54:02;26.00;1.00
3037;DHT22;1528;52.550;13.408;2022-09-03T13:56:54;25.80;1.00
3037;DHT22;1528;52.550;13.408;2022-09-03T13:59:48;25.70;1.00
3037;DHT22;1528;52.550;13.408;2022-09-03T14:02:49;25.50;1.00
3037;DHT22;1528;52.550;13.408;2022-09-03T14:05:47;25.70;1.00
3037;DHT22;1528;52.550;13.408;2022-09-03T14:09:03;25.80;1.00
3037;DHT22;1528;52.550;13.408;2022-09-03T14:12:02;26.10;1.00
3037;DHT22;1528;52.550;13.408;2022-09-03T14:14:54;26.10;1.00
3037;DHT22;1528;52.550;13.408;2022-09-03T14:17:47;26.20;1.00
3037;DHT22;1528;52.550;13.408;2022-09-03T14:20:42;26.20;1.00
3037;DHT22;1528;52.550;13.408;2022-09-03T14:23:35;26.10;1.00
3037;DHT22;1528;52.550;13.408;2022-09-03T14:26:30;26.00;1.00
3037;DHT22;1528;52.550;13.408;2022-09-03T14:29:27;25.90;1.00
3037;DHT22;1528;52.550;13.408;2022-09-03T15:13:51;29.10;1.00
3037;DHT22;1528;52.550;13.408;2022-09-03T15:16:47;28.60;1.00
3037;DHT22;1528;52.550;13.408;2022-09-03T15:19:54;27.90;1.00
3037;DHT22;1528;52.550;13.408;2022-09-03T15:23:11;27.60;1.00
3037;DHT22;1528;52.550;13.408;2022-09-03T15:29:47;27.90;1.00
3037;DHT22;1528;52.550;13.408;2022-09-03T15:32:47;33.70;1.00
3037;DHT22;1528;52.550;13.408;2022-09-03T15:35:41;37.30;1.00
3037;DHT22;1528;52.550;13.408;2022-09-03T15:38:39;38.60;1.00
3037;DHT22;1528;52.550;13.408;2022-09-03T15:41:33;38.10;1.00
3037;DHT22;1528;52.550;13.408;2022-09-03T15:44:20;38.80;1.00
3037;DHT22;1528;52.550;13.408;2022-09-03T15:47:10;37.60;1.00
3037;DHT22;1528;52.550;13.408;2022-09-03T15:50:00;35.90;1.00
3037;DHT22;1528;52.550;13.408;2022-09-03T15:52:53;34.50;1.00
3037;DHT22;1528;52.550;13.408;2022-09-03T15:55:42;33.60;1.00
3037;DHT22;1528;52.550;13.408;2022-09-03T15:58:33;33.10;1.00
3037;DHT22;1528;52.550;13.408;2022-09-03T16:01:36;32.00;1.00
3037;DHT22;1528;52.550;13.408;2022-09-03T16:04:38;31.10;1.00
3037;DHT22;1528;52.550;13.408;2022-09-03T16:07:28;30.70;1.00
3037;DHT22;1528;52.550;13.408;2022-09-03T16:10:18;30.30;1.00
3037;DHT22;1528;52.550;13.408;2022-09-03T16:13:11;30.00;1.00
3037;DHT22;1528;52.550;13.408;2022-09-03T16:16:08;29.80;1.00
3037;DHT22;1528;52.550;13.408;2022-09-03T16:19:00;29.30;1.00
3037;DHT22;1528;52.550;13.408;2022-09-03T16:21:58;29.00;1.00
3037;DHT22;1528;52.550;13.408;2022-09-03T16:24:49;28.50;1.00
3037;DHT22;1528;52.550;13.408;2022-09-03T16:27:39;28.20;1.00
3037;DHT22;1528;52.550;13.408;2022-09-03T16:30:41;27.80;1.00
3037;DHT22;1528;52.550;13.408;2022-09-03T16:33:38;27.60;1.00
3037;DHT22;1528;52.550;13.408;2022-09-03T16:36:35;27.30;1.00
3037;DHT22;1528;52.550;13.408;2022-09-03T16:39:34;26.90;1.00
3037;DHT22;1528;52.550;13.408;2022-09-03T16:42:30;26.60;1.00
3037;DHT22;1528;52.550;13.408;2022-09-03T16:45:23;26.30;1.00
3037;DHT22;1528;52.550;13.408;2022-09-03T16:48:23;26.10;1.00
3037;DHT22;1528;52.550;13.408;2022-09-03T16:51:13;25.80;1.00
3037;DHT22;1528;52.550;13.408;2022-09-03T16:54:20;25.70;1.00
3037;DHT22;1528;52.550;13.408;2022-09-03T16:57:21;25.50;1.00
3037;DHT22;1528;52.550;13.408;2022-09-03T17:00:09;25.20;1.00
3037;DHT22;1528;52.550;13.408;2022-09-03T17:03:15;25.00;1.00
3037;DHT22;1528;52.550;13.408;2022-09-03T17:06:29;24.80;1.00
3037;DHT22;1528;52.550;13.408;2022-09-03T17:09:26;24.50;1.00
3037;DHT22;1528;52.550;13.408;2022-09-03T17:12:22;24.20;1.00
3037;DHT22;1528;52.550;13.408;2022-09-03T17:15:21;24.10;1.00
3037;DHT22;1528;52.550;13.408;2022-09-03T17:18:20;23.90;1.00
3037;DHT22;1528;52.550;13.408;2022-09-03T17:21:20;23.80;1.00
3037;DHT22;1528;52.550;13.408;2022-09-03T17:24:32;23.70;1.30
3037;DHT22;1528;52.550;13.408;2022-09-03T17:30:38;23.50;1.30
3037;DHT22;1528;52.550;13.408;2022-09-03T17:33:51;23.50;2.10
3037;DHT22;1528;52.550;13.408;2022-09-03T17:36:52;23.20;2.00
3037;DHT22;1528;52.550;13.408;2022-09-03T17:39:57;23.10;2.70
3037;DHT22;1528;52.550;13.408;2022-09-03T17:42:53;23.00;2.60
3037;DHT22;1528;52.550;13.408;2022-09-03T17:45:50;22.80;1.90
3037;DHT22;1528;52.550;13.408;2022-09-03T17:48:48;22.70;3.20
3037;DHT22;1528;52.550;13.408;2022-09-03T17:51:40;22.50;3.20
3037;DHT22;1528;52.550;13.408;2022-09-03T17:54:36;22.50;3.60
3037;DHT22;1528;52.550;13.408;2022-09-03T17:57:26;22.40;4.00
3037;DHT22;1528;52.550;13.408;2022-09-03T18:00:22;22.30;3.80
3037;DHT22;1528;52.550;13.408;2022-09-03T18:03:12;22.20;3.40
3037;DHT22;1528;52.550;13.408;2022-09-03T18:06:03;22.10;3.30
3037;DHT22;1528;52.550;13.408;2022-09-03T18:08:55;21.90;3.70
3037;DHT22;1528;52.550;13.408;2022-09-03T18:11:47;21.90;4.90
3037;DHT22;1528;52.550;13.408;2022-09-03T18:14:39;21.70;3.90
3037;DHT22;1528;52.550;13.408;2022-09-03T18:17:36;21.60;4.30
3037;DHT22;1528;52.550;13.408;2022-09-03T18:20:24;21.40;4.20
3037;DHT22;1528;52.550;13.408;2022-09-03T18:23:33;21.50;4.30
3037;DHT22;1528;52.550;13.408;2022-09-03T18:26:45;21.40;4.90
3037;DHT22;1528;52.550;13.408;2022-09-03T18:29:54;21.30;4.50
3037;DHT22;1528;52.550;13.408;2022-09-03T18:33:00;21.30;5.70
3037;DHT22;1528;52.550;13.408;2022-09-03T18:36:04;21.30;5.00
3037;DHT22;1528;52.550;13.408;2022-09-03T18:39:13;21.20;5.80
3037;DHT22;1528;52.550;13.408;2022-09-03T18:42:21;21.20;6.00
3037;DHT22;1528;52.550;13.408;2022-09-03T18:45:37;21.10;5.20
3037;DHT22;1528;52.550;13.408;2022-09-03T18:48:51;21.10;5.30
3037;DHT22;1528;52.550;13.408;2022-09-03T18:52:04;21.10;5.10
3037;DHT22;1528;52.550;13.408;2022-09-03T18:55:14;21.10;5.40
3037;DHT22;1528;52.550;13.408;2022-09-03T18:58:30;21.00;5.40
3037;DHT22;1528;52.550;13.408;2022-09-03T19:01:38;21.00;5.70
3037;DHT22;1528;52.550;13.408;2022-09-03T19:04:53;20.90;5.60
3037;DHT22;1528;52.550;13.408;2022-09-03T19:08:01;20.80;5.80
3037;DHT22;1528;52.550;13.408;2022-09-03T19:11:21;20.90;5.90
3037;DHT22;1528;52.550;13.408;2022-09-03T19:14:31;20.80;6.00
3037;DHT22;1528;52.550;13.408;2022-09-03T19:21:18;20.80;5.90
3037;DHT22;1528;52.550;13.408;2022-09-03T19:24:27;20.70;6.00
3037;DHT22;1528;52.550;13.408;2022-09-03T19:27:37;20.60;5.90
3037;DHT22;1528;52.550;13.408;2022-09-03T19:30:50;20.50;6.40
3037;DHT22;1528;52.550;13.408;2022-09-03T19:33:58;20.50;6.30
3037;DHT22;1528;52.550;13.408;2022-09-03T19:37:10;20.40;6.60
3037;DHT22;1528;52.550;13.408;2022-09-03T19:40:41;20.40;6.50
3037;DHT22;1528;52.550;13.408;2022-09-03T19:43:59;20.40;6.50
3037;DHT22;1528;52.550;13.408;2022-09-03T19:47:20;20.40;6.40
3037;DHT22;1528;52.550;13.408;2022-09-03T19:50:29;20.40;6.80
3037;DHT22;1528;52.550;13.408;2022-09-03T19:53:37;20.30;6.80
3037;DHT22;1528;52.550;13.408;2022-09-03T19:56:40;20.20;6.90
3037;DHT22;1528;52.550;13.408;2022-09-03T19:59:47;20.30;7.50
3037;DHT22;1528;52.550;13.408;2022-09-03T20:02:51;20.20;6.90
3037;DHT22;1528;52.550;13.408;2022-09-03T20:05:54;20.20;6.90
3037;DHT22;1528;52.550;13.408;2022-09-03T20:09:06;20.20;7.00
3037;DHT22;1528;52.550;13.408;2022-09-03T20:12:12;20.10;7.20
3037;DHT22;1528;52.550;13.408;2022-09-03T20:14:58;20.10;7.70
3037;DHT22;1528;52.550;13.408;2022-09-03T20:17:55;20.10;8.00
3037;DHT22;1528;52.550;13.408;2022-09-03T20:20:47;20.00;7.60
3037;DHT22;1528;52.550;13.408;2022-09-03T20:23:41;20.10;7.40
3037;DHT22;1528;52.550;13.408;2022-09-03T20:26:39;20.10;7.40
3037;DHT22;1528;52.550;13.408;2022-09-03T20:29:36;20.00;8.10
3037;DHT22;1528;52.550;13.408;2022-09-03T20:35:51;20.10;7.40
3037;DHT22;1528;52.550;13.408;2022-09-03T20:39:01;20.00;7.50
3037;DHT22;1528;52.550;13.408;2022-09-03T20:41:56;19.90;7.50
3037;DHT22;1528;52.550;13.408;2022-09-03T20:44:52;20.00;7.40
3037;DHT22;1528;52.550;13.408;2022-09-03T20:48:07;19.90;7.50
3037;DHT22;1528;52.550;13.408;2022-09-03T20:51:01;19.90;7.60
3037;DHT22;1528;52.550;13.408;2022-09-03T20:54:03;19.90;7.70
3037;DHT22;1528;52.550;13.408;2022-09-03T20:57:02;19.80;7.40
3037;DHT22;1528;52.550;13.408;2022-09-03T21:00:05;19.90;7.50
3037;DHT22;1528;52.550;13.408;2022-09-03T21:03:03;19.60;7.90
3037;DHT22;1528;52.550;13.408;2022-09-03T21:06:09;19.60;7.90
3037;DHT22;1528;52.550;13.408;2022-09-03T21:09:05;19.70;7.90
3037;DHT22;1528;52.550;13.408;2022-09-03T21:12:01;19.70;7.60
3037;DHT22;1528;52.550;13.408;2022-09-03T21:14:50;19.60;8.10
3037;DHT22;1528;52.550;13.408;2022-09-03T21:17:48;19.60;8.40
3037;DHT22;1528;52.550;13.408;2022-09-03T21:20:44;19.70;7.90
3037;DHT22;1528;52.550;13.408;2022-09-03T21:23:33;19.70;7.70
3037;DHT22;1528;52.550;13.408;2022-09-03T21:26:23;19.50;8.00
3037;DHT22;1528;52.550;13.408;2022-09-03T21:29:18;19.50;8.10
3037;DHT22;1528;52.550;13.408;2022-09-03T21:32:08;19.50;8.00
3037;DHT22;1528;52.550;13.408;2022-09-03T21:35:02;19.50;7.90
3037;DHT22;1528;52.550;13.408;2022-09-03T21:37:54;19.60;7.70
3037;DHT22;1528;52.550;13.408;2022-09-03T21:40:45;19.50;7.80
3037;DHT22;1528;52.550;13.408;2022-09-03T21:43:37;19.40;7.80
3037;DHT22;1528;52.550;13.408;2022-09-03T21:46:31;19.20;8.20
3037;DHT22;1528;52.550;13.408;2022-09-03T21:49:23;19.20;8.40
3037;DHT22;1528;52.550;13.408;2022-09-03T21:52:13;19.30;8.20
3037;DHT22;1528;52.550;13.408;2022-09-03T21:55:01;19.40;8.20
3037;DHT22;1528;52.550;13.408;2022-09-03T21:58:02;19.40;8.20
3037;DHT22;1528;52.550;13.408;2022-09-03T22:00:51;19.30;8.30
3037;DHT22;1528;52.550;13.408;2022-09-03T22:03:41;19.30;8.00
3037;DHT22;1528;52.550;13.408;2022-09-03T22:06:33;19.20;8.30
3037;DHT22;1528;52.550;13.408;2022-09-03T22:09:25;19.00;8.40
3037;DHT22;1528;52.550;13.408;2022-09-03T22:12:15;19.10;8.70
3037;DHT22;1528;52.550;13.408;2022-09-03T22:15:02;19.00;8.90
3037;DHT22;1528;52.550;13.408;2022-09-03T22:18:00;19.10;8.60
3037;DHT22;1528;52.550;13.408;2022-09-03T22:20:54;19.00;8.90
3037;DHT22;1528;52.550;13.408;2022-09-03T22:23:50;19.00;9.00
3037;DHT22;1528;52.550;13.408;2022-09-03T22:26:43;18.90;9.10
3037;DHT22;1528;52.550;13.408;2022-09-03T22:29:39;18.90;9.00
3037;DHT22;1528;52.550;13.408;2022-09-03T22:32:34;19.00;9.00
3037;DHT22;1528;52.550;13.408;2022-09-03T22:35:40;18.90;9.30
3037;DHT22;1528;52.550;13.408;2022-09-03T22:45:21;18.80;9.40
3037;DHT22;1528;52.550;13.408;2022-09-03T22:48:17;18.70;9.70
3037;DHT22;1528;52.550;13.408;2022-09-03T22:51:05;18.80;9.10
3037;DHT22;1528;52.550;13.408;2022-09-03T22:54:04;18.70;9.70
3037;DHT22;1528;52.550;13.408;2022-09-03T22:56:55;18.80;9.40
3037;DHT22;1528;52.550;13.408;2022-09-03T22:59:45;18.80;9.50
3037;DHT22;1528;52.550;13.408;2022-09-03T23:02:36;18.70;10.00
3037;DHT22;1528;52.550;13.408;2022-09-03T23:05:31;18.60;9.50
3037;DHT22;1528;52.550;13.408;2022-09-03T23:08:21;18.90;9.70
3037;DHT22;1528;52.550;13.408;2022-09-03T23:11:17;18.90;9.10
3037;DHT22;1528;52.550;13.408;2022-09-03T23:14:10;18.90;9.40
3037;DHT22;1528;52.550;13.408;2022-09-03T23:17:02;18.80;9.30
3037;DHT22;1528;52.550;13.408;2022-09-03T23:19:53;18.80;9.60
3037;DHT22;1528;52.550;13.408;2022-09-03T23:22:44;18.80;9.70
3037;DHT22;1528;52.550;13.408;2022-09-03T23:25:40;18.80;9.60
3037;DHT22;1528;52.550;13.408;2022-09-03T23:28:33;18.80;9.80
3037;DHT22;1528;52.550;13.408;2022-09-03T23:31:22;18.80;9.70
3037;DHT22;1528;52.550;13.408;2022-09-03T23:34:09;18.80;9.90
3037;DHT22;1528;52.550;13.408;2022-09-03T23:37:09;18.70;10.10
3037;DHT22;1528;52.550;13.408;2022-09-03T23:40:23;18.60;10.20
3037;DHT22;1528;52.550;13.408;2022-09-03T23:43:48;18.60;10.30
3037;DHT22;1528;52.550;13.408;2022-09-03T23:46:40;18.50;10.40
3037;DHT22;1528;52.550;13.408;2022-09-03T23:49:35;18.50;10.50
3037;DHT22;1528;52.550;13.408;2022-09-03T23:52:43;18.40;10.70
3037;DHT22;1528;52.550;13.408;2022-09-03T23:55:46;18.40;10.90
3037;DHT22;1528;52.550;13.408;2022-09-03T23:58:52;18.20;11.50
